createdAt,value
2018-05-02T00:00:08.266Z,15.31
2018-05-02T00:02:36.754Z,14.71
2018-05-02T00:05:05.147Z,15.04
2018-05-02T00:07:33.584Z,14.80
2018-05-02T00:10:02.126Z,14.94
2018-05-02T00:12:30.577Z,14.78
2018-05-02T00:14:58.987Z,14.93
2018-05-02T00:17:27.560Z,14.93
2018-05-02T00:19:55.992Z,14.83
2018-05-02T00:22:24.395Z,14.86
2018-05-02T00:24:52.858Z,14.95
2018-05-02T00:27:21.278Z,14.60
2018-05-02T00:29:49.746Z,14.66
2018-05-02T00:32:18.158Z,14.24
2018-05-02T00:34:46.627Z,14.58
2018-05-02T00:37:15.051Z,14.38
2018-05-02T00:39:43.480Z,14.56
2018-05-02T00:42:11.939Z,14.64
2018-05-02T00:44:40.355Z,14.56
2018-05-02T00:47:08.817Z,14.56
2018-05-02T00:49:37.273Z,14.52
2018-05-02T00:52:05.701Z,14.36
2018-05-02T00:54:34.147Z,14.39
2018-05-02T00:57:02.589Z,14.30
2018-05-02T00:59:31.003Z,14.25
2018-05-02T01:01:59.461Z,14.35
2018-05-02T01:04:27.858Z,14.28
2018-05-02T01:06:56.327Z,14.54
2018-05-02T01:09:24.757Z,14.30
2018-05-02T01:11:53.192Z,14.37
2018-05-02T01:14:21.602Z,14.31
2018-05-02T01:16:50.058Z,14.25
2018-05-02T01:19:18.483Z,14.33
2018-05-02T01:21:46.949Z,14.23
2018-05-02T01:24:15.515Z,14.07
2018-05-02T01:26:43.941Z,13.90
2018-05-02T01:29:12.347Z,14.12
2018-05-02T01:31:40.808Z,14.08
2018-05-02T01:34:09.213Z,13.68
2018-05-02T01:36:37.703Z,13.63
2018-05-02T01:39:06.164Z,13.80
2018-05-02T01:41:34.565Z,13.68
2018-05-02T01:44:02.984Z,13.39
2018-05-02T01:46:31.426Z,13.74
2018-05-02T01:49:11.692Z,13.35
2018-05-02T01:51:40.119Z,13.14
2018-05-02T01:54:08.560Z,13.15
2018-05-02T01:56:36.984Z,13.33
2018-05-02T01:59:05.376Z,13.59
2018-05-02T02:01:33.779Z,13.31
2018-05-02T02:04:02.223Z,13.51
2018-05-02T02:06:30.672Z,13.43
2018-05-02T02:08:59.115Z,13.28
2018-05-02T02:11:27.509Z,13.46
2018-05-02T02:13:55.952Z,13.35
2018-05-02T02:16:24.412Z,13.22
2018-05-02T02:18:52.820Z,13.16
2018-05-02T02:21:21.287Z,13.26
2018-05-02T02:23:49.751Z,13.23
2018-05-02T02:26:19.157Z,13.22
2018-05-02T02:28:47.582Z,13.19
2018-05-02T02:31:16.594Z,13.18
2018-05-02T02:33:46.649Z,13.29
2018-05-02T02:36:16.498Z,13.05
2018-05-02T02:38:45.624Z,13.01
2018-05-02T02:41:15.506Z,13.10
2018-05-02T02:43:43.906Z,13.09
2018-05-02T02:46:12.343Z,13.11
2018-05-02T02:48:40.769Z,13.13
2018-05-02T02:51:09.199Z,13.17
2018-05-02T02:53:37.674Z,12.88
2018-05-02T02:56:06.104Z,12.51
2018-05-02T02:58:34.571Z,12.60
2018-05-02T03:01:03.029Z,12.56
2018-05-02T03:03:31.486Z,12.58
2018-05-02T03:05:59.890Z,12.71
2018-05-02T03:08:28.294Z,12.78
2018-05-02T03:10:56.712Z,12.84
2018-05-02T03:13:25.147Z,12.71
2018-05-02T03:15:53.639Z,12.81
2018-05-02T03:18:22.058Z,12.69
2018-05-02T03:20:50.502Z,12.78
2018-05-02T03:23:18.964Z,12.72
2018-05-02T03:25:47.431Z,12.74
2018-05-02T03:28:16.075Z,12.89
2018-05-02T03:30:44.589Z,12.70
2018-05-02T03:33:13.008Z,12.66
2018-05-02T03:35:41.404Z,12.54
2018-05-02T03:38:09.899Z,12.68
2018-05-02T03:40:38.324Z,12.81
2018-05-02T03:43:06.783Z,12.76
2018-05-02T03:45:35.251Z,13.07
2018-05-02T03:48:03.676Z,13.05
2018-05-02T03:50:32.159Z,12.96
2018-05-02T03:53:00.586Z,13.01
2018-05-02T03:55:29.075Z,13.06
2018-05-02T03:57:57.559Z,13.03
2018-05-02T04:00:37.816Z,13.12
2018-05-02T04:03:18.104Z,13.19
2018-05-02T04:05:58.488Z,13.21
2018-05-02T04:08:26.945Z,13.34
2018-05-02T04:10:55.496Z,13.61
2018-05-02T04:13:23.953Z,13.63
2018-05-02T04:15:52.369Z,13.91
2018-05-02T04:18:20.839Z,13.95
2018-05-02T04:20:49.261Z,14.24
2018-05-02T04:23:17.703Z,14.33
2018-05-02T04:25:46.144Z,13.94
2018-05-02T04:28:14.623Z,14.28
2018-05-02T04:30:43.087Z,14.66
2018-05-02T04:33:11.494Z,14.85
2018-05-02T04:35:39.953Z,14.93
2018-05-02T04:38:08.401Z,15.17
2018-05-02T04:40:36.850Z,15.31
2018-05-02T04:43:05.299Z,15.32
2018-05-02T04:45:33.770Z,15.09
2018-05-02T04:48:02.192Z,15.38
2018-05-02T04:50:30.724Z,15.35
2018-05-02T04:52:59.423Z,15.52
2018-05-02T04:55:27.956Z,15.49
2018-05-02T04:57:56.317Z,15.63
2018-05-02T05:00:24.800Z,15.59
2018-05-02T05:02:53.295Z,15.37
2018-05-02T05:05:21.741Z,15.48
2018-05-02T05:07:50.174Z,15.53
2018-05-02T05:10:19.528Z,15.81
2018-05-02T05:12:47.982Z,15.72
2018-05-02T05:15:16.511Z,15.97
2018-05-02T05:17:44.963Z,16.29
2018-05-02T05:20:13.715Z,16.28
2018-05-02T05:22:42.200Z,16.53
2018-05-02T05:25:10.651Z,16.73
2018-05-02T05:27:39.055Z,16.97
2018-05-02T05:30:07.508Z,17.17
2018-05-02T05:32:35.967Z,17.24
2018-05-02T05:35:04.388Z,17.31
2018-05-02T05:37:33.057Z,17.55
2018-05-02T05:40:01.743Z,17.42
2018-05-02T05:42:30.237Z,17.71
2018-05-02T05:44:58.712Z,17.82
2018-05-02T05:47:27.192Z,17.60
2018-05-02T05:49:55.612Z,17.66
2018-05-02T05:52:24.070Z,17.97
2018-05-02T05:54:52.638Z,18.26
2018-05-02T05:57:21.075Z,18.25
2018-05-02T05:59:49.489Z,18.54
2018-05-02T06:02:17.932Z,18.17
2018-05-02T06:04:46.391Z,18.46
2018-05-02T06:07:14.865Z,18.26
2018-05-02T06:09:43.328Z,18.26
2018-05-02T06:12:11.815Z,18.47
2018-05-02T06:14:40.274Z,18.83
2018-05-02T06:17:08.781Z,18.76
2018-05-02T06:19:37.174Z,18.92
2018-05-02T06:22:05.624Z,19.16
2018-05-02T06:24:34.087Z,19.08
2018-05-02T06:27:02.576Z,19.37
2018-05-02T06:29:31.035Z,19.44
2018-05-02T06:31:59.461Z,19.43
2018-05-02T06:34:27.935Z,19.59
2018-05-02T06:36:56.348Z,19.82
2018-05-02T06:39:24.799Z,19.91
2018-05-02T06:41:53.382Z,19.90
2018-05-02T06:44:21.864Z,19.61
2018-05-02T06:46:50.299Z,19.83
2018-05-02T06:49:18.796Z,20.09
2018-05-02T06:51:47.227Z,20.39
2018-05-02T06:54:15.650Z,20.82
2018-05-02T06:56:44.096Z,20.89
2018-05-02T06:59:12.487Z,20.66
2018-05-02T07:01:41.052Z,20.86
2018-05-02T07:04:09.463Z,20.81
2018-05-02T07:06:37.929Z,20.97
2018-05-02T07:09:12.316Z,20.94
2018-05-02T07:11:40.743Z,21.38
2018-05-02T07:14:09.190Z,21.45
2018-05-02T07:16:37.605Z,21.32
2018-05-02T07:19:06.090Z,21.48
2018-05-02T07:21:34.475Z,21.77
2018-05-02T07:24:03.011Z,21.80
2018-05-02T07:26:31.397Z,22.29
2018-05-02T07:28:59.790Z,22.59
2018-05-02T07:31:28.215Z,22.67
2018-05-02T07:33:56.625Z,22.99
2018-05-02T07:36:25.056Z,23.11
2018-05-02T07:38:53.488Z,23.23
2018-05-02T07:41:21.943Z,22.77
2018-05-02T07:43:50.359Z,22.90
2018-05-02T07:46:18.767Z,22.39
2018-05-02T07:48:47.224Z,22.62
2018-05-02T07:51:15.710Z,22.81
2018-05-02T07:53:44.122Z,23.00
2018-05-02T07:56:12.684Z,23.32
2018-05-02T07:58:41.124Z,23.49
2018-05-02T08:01:09.572Z,23.89
2018-05-02T08:03:38.008Z,23.93
2018-05-02T08:06:06.460Z,24.06
2018-05-02T08:08:34.864Z,24.00
2018-05-02T08:11:03.318Z,24.21
2018-05-02T08:13:31.766Z,23.81
2018-05-02T08:16:00.156Z,24.20
2018-05-02T08:18:28.595Z,24.33
2018-05-02T08:20:56.980Z,24.49
2018-05-02T08:23:25.439Z,24.17
2018-05-02T08:25:53.860Z,24.29
2018-05-02T08:28:22.263Z,24.46
2018-05-02T08:30:50.698Z,24.02
2018-05-02T08:33:19.178Z,24.27
2018-05-02T08:35:47.627Z,24.73
2018-05-02T08:38:16.085Z,25.24
2018-05-02T08:40:44.484Z,25.56
2018-05-02T08:43:12.898Z,25.75
2018-05-02T08:45:41.299Z,24.56
2018-05-02T08:48:09.702Z,24.50
2018-05-02T08:50:38.159Z,24.37
2018-05-02T08:53:06.589Z,24.88
2018-05-02T08:55:35.016Z,25.40
2018-05-02T08:58:03.441Z,25.77
2018-05-02T09:00:31.905Z,25.45
2018-05-02T09:03:00.383Z,25.30
2018-05-02T09:05:28.807Z,25.92
2018-05-02T09:07:57.243Z,25.93
2018-05-02T09:10:25.659Z,26.01
2018-05-02T09:12:54.083Z,26.28
2018-05-02T09:15:22.540Z,26.67
2018-05-02T09:17:50.949Z,26.19
2018-05-02T09:20:19.335Z,26.20
2018-05-02T09:22:47.758Z,26.54
2018-05-02T09:25:16.235Z,26.80
2018-05-02T09:27:44.656Z,26.96
2018-05-02T09:30:13.120Z,26.94
2018-05-02T09:32:41.556Z,26.95
2018-05-02T09:35:10.103Z,26.82
2018-05-02T09:37:38.618Z,27.26
2018-05-02T09:40:07.110Z,27.20
2018-05-02T09:42:35.519Z,27.35
2018-05-02T09:45:03.966Z,27.46
2018-05-02T09:47:32.457Z,27.54
2018-05-02T09:50:00.949Z,27.13
2018-05-02T09:52:29.361Z,27.42
2018-05-02T09:54:57.811Z,27.19
2018-05-02T09:57:26.215Z,27.39
2018-05-02T09:59:54.652Z,27.67
2018-05-02T10:02:23.137Z,27.67
2018-05-02T10:04:51.627Z,27.92
2018-05-02T10:07:20.158Z,28.07
2018-05-02T10:09:49.675Z,27.93
2018-05-02T10:12:18.084Z,28.49
2018-05-02T10:14:46.529Z,28.96
2018-05-02T10:17:14.928Z,28.67
2018-05-02T10:19:43.519Z,28.55
2018-05-02T10:22:11.897Z,28.77
2018-05-02T10:24:40.354Z,28.94
2018-05-02T10:27:08.807Z,28.98
2018-05-02T10:29:37.323Z,29.35
2018-05-02T10:32:05.751Z,29.64
2018-05-02T10:34:34.185Z,30.27
2018-05-02T10:37:02.740Z,30.03
2018-05-02T10:39:31.096Z,30.46
2018-05-02T10:41:59.568Z,30.59
2018-05-02T10:44:27.967Z,30.80
2018-05-02T10:46:56.406Z,31.01
2018-05-02T10:49:24.815Z,31.05
2018-05-02T10:51:53.271Z,31.28
2018-05-02T10:54:21.831Z,32.28
2018-05-02T10:56:50.264Z,32.33
2018-05-02T10:59:18.641Z,32.25
2018-05-02T11:01:47.079Z,32.53
2018-05-02T11:04:15.559Z,32.78
2018-05-02T11:06:44.035Z,33.00
2018-05-02T11:09:12.460Z,33.20
2018-05-02T11:11:40.952Z,33.90
2018-05-02T11:14:09.355Z,33.67
2018-05-02T11:16:37.817Z,32.97
2018-05-02T11:19:06.290Z,33.43
2018-05-02T11:21:34.769Z,33.83
2018-05-02T11:24:03.203Z,34.06
2018-05-02T11:26:31.647Z,34.12
2018-05-02T11:29:00.107Z,33.95
2018-05-02T11:31:28.521Z,32.66
2018-05-02T11:33:56.956Z,32.40
2018-05-02T11:36:25.355Z,31.06
2018-05-02T11:38:54.126Z,31.90
2018-05-02T11:41:22.540Z,31.48
2018-05-02T11:43:50.960Z,31.76
2018-05-02T11:46:19.461Z,32.72
2018-05-02T11:48:48.056Z,32.81
2018-05-02T11:51:16.491Z,32.20
2018-05-02T11:53:44.920Z,31.61
2018-05-02T11:56:13.376Z,32.23
2018-05-02T11:58:41.858Z,32.03
2018-05-02T12:01:10.279Z,32.18
2018-05-02T12:03:38.759Z,32.83
2018-05-02T12:06:07.216Z,33.07
2018-05-02T12:08:35.623Z,34.34
2018-05-02T12:11:04.079Z,34.98
2018-05-02T12:13:32.505Z,35.83
2018-05-02T12:16:00.971Z,34.58
2018-05-02T12:18:29.397Z,35.99
2018-05-02T12:20:57.888Z,36.07
2018-05-02T12:23:26.318Z,36.12
2018-05-02T12:25:54.741Z,36.60
2018-05-02T12:28:23.171Z,36.51
2018-05-02T12:30:51.617Z,35.77
2018-05-02T12:33:20.039Z,35.42
2018-05-02T12:35:48.532Z,35.70
2018-05-02T12:38:16.922Z,35.87
2018-05-02T12:40:45.373Z,36.88
2018-05-02T12:43:13.815Z,37.82
2018-05-02T12:45:42.250Z,38.67
2018-05-02T12:48:10.667Z,39.35
2018-05-02T12:50:39.136Z,40.01
2018-05-02T12:53:07.539Z,39.17
2018-05-02T12:55:35.959Z,39.17
2018-05-02T12:58:04.398Z,39.53
2018-05-02T13:00:33.375Z,39.04
2018-05-02T13:03:01.782Z,39.99
2018-05-02T13:05:30.180Z,38.80
2018-05-02T13:07:58.736Z,38.65
2018-05-02T13:10:27.161Z,38.26
2018-05-02T13:12:55.855Z,37.11
2018-05-02T13:15:24.384Z,37.80
2018-05-02T13:17:52.799Z,37.71
2018-05-02T13:20:21.187Z,38.04
2018-05-02T13:22:49.631Z,37.73
2018-05-02T13:25:18.101Z,38.10
2018-05-02T13:27:46.911Z,38.86
2018-05-02T13:30:15.339Z,39.04
2018-05-02T13:32:43.746Z,39.05
2018-05-02T13:35:12.148Z,37.86
2018-05-02T13:37:40.591Z,36.94
2018-05-02T13:40:09.011Z,33.69
2018-05-02T13:42:37.482Z,31.85
2018-05-02T13:45:06.070Z,31.54
2018-05-02T13:47:34.524Z,31.33
2018-05-02T13:50:02.993Z,32.29
2018-05-02T13:52:31.718Z,32.84
2018-05-02T13:55:00.190Z,30.98
2018-05-02T13:57:28.611Z,29.55
2018-05-02T13:59:57.094Z,28.96
2018-05-02T14:02:25.574Z,28.74
2018-05-02T14:04:54.011Z,28.46
2018-05-02T14:07:22.452Z,28.33
2018-05-02T14:09:50.870Z,27.97
2018-05-02T14:12:19.310Z,27.47
2018-05-02T14:14:47.736Z,27.34
2018-05-02T14:17:16.192Z,27.10
2018-05-02T14:19:44.629Z,26.88
2018-05-02T14:22:13.433Z,26.84
2018-05-02T14:24:42.012Z,26.61
2018-05-02T14:27:10.451Z,26.64
2018-05-02T14:29:38.931Z,26.26
2018-05-02T14:32:07.424Z,26.31
2018-05-02T14:34:35.865Z,26.12
2018-05-02T14:37:04.332Z,26.16
2018-05-02T14:39:32.882Z,25.92
2018-05-02T14:42:01.413Z,26.19
2018-05-02T14:44:29.842Z,26.18
2018-05-02T14:46:59.099Z,25.95
2018-05-02T14:49:27.559Z,25.93
2018-05-02T14:51:56.045Z,26.22
2018-05-02T14:54:24.529Z,25.53
2018-05-02T14:56:52.961Z,25.33
2018-05-02T14:59:21.420Z,25.16
2018-05-02T15:01:50.815Z,25.19
2018-05-02T15:06:48.710Z,25.01
2018-05-02T15:09:17.119Z,24.85
2018-05-02T15:11:45.827Z,24.88
2018-05-02T15:14:14.492Z,24.51
2018-05-02T15:16:42.928Z,24.26
2018-05-02T15:19:11.565Z,24.18
2018-05-02T15:21:39.970Z,23.72
2018-05-02T15:24:08.423Z,23.60
2018-05-02T15:26:36.938Z,23.71
2018-05-02T15:29:05.364Z,23.75
2018-05-02T15:31:33.891Z,23.92
2018-05-02T15:34:02.323Z,23.43
2018-05-02T15:36:30.832Z,23.77
2018-05-02T15:38:59.284Z,23.68
2018-05-02T15:41:27.761Z,23.70
2018-05-02T15:43:56.259Z,23.90
2018-05-02T15:46:24.692Z,24.05
2018-05-02T15:48:53.138Z,24.18
2018-05-02T15:51:21.558Z,24.21
2018-05-02T15:53:50.011Z,24.08
2018-05-02T15:56:18.447Z,24.19
2018-05-02T15:58:46.858Z,23.67
2018-05-02T16:01:15.268Z,23.75
2018-05-02T16:03:43.699Z,24.10
2018-05-02T16:06:12.140Z,23.81
2018-05-02T16:08:40.559Z,23.37
2018-05-02T16:11:09.021Z,23.57
2018-05-02T16:13:37.448Z,23.49
2018-05-02T16:16:05.954Z,23.73
2018-05-02T16:18:34.375Z,23.55
2018-05-02T16:21:02.839Z,22.90
2018-05-02T16:23:31.263Z,23.14
2018-05-02T16:25:59.732Z,23.48
2018-05-02T16:28:28.154Z,23.49
2018-05-02T16:30:56.591Z,23.27
2018-05-02T16:33:25.623Z,23.33
2018-05-02T16:35:54.059Z,23.36
2018-05-02T16:38:22.659Z,23.25
2018-05-02T16:40:51.491Z,22.97
2018-05-02T16:43:20.038Z,22.87
2018-05-02T16:45:48.443Z,22.35
2018-05-02T16:48:17.252Z,22.38
2018-05-02T16:50:45.651Z,22.37
2018-05-02T16:53:14.035Z,22.55
2018-05-02T16:55:42.488Z,22.18
2018-05-02T16:58:10.893Z,22.36
2018-05-02T17:00:39.513Z,22.51
2018-05-02T17:03:09.263Z,22.61
2018-05-02T17:05:37.651Z,22.72
2018-05-02T17:08:06.079Z,22.43
2018-05-02T17:10:34.564Z,22.02
2018-05-02T17:13:02.969Z,22.26
2018-05-02T17:15:31.442Z,22.27
2018-05-02T17:18:00.158Z,22.11
2018-05-02T17:20:28.568Z,22.07
2018-05-02T17:22:56.973Z,21.85
2018-05-02T17:25:25.707Z,21.73
2018-05-02T17:27:54.124Z,21.76
2018-05-02T17:30:22.549Z,21.72
2018-05-02T17:32:51.244Z,21.78
2018-05-02T17:35:19.744Z,21.81
2018-05-02T17:37:48.155Z,21.77
2018-05-02T17:40:16.916Z,21.61
2018-05-02T17:42:45.311Z,21.67
2018-05-02T17:45:13.711Z,21.73
2018-05-02T17:47:42.748Z,21.61
2018-05-02T17:50:11.153Z,21.33
2018-05-02T17:52:39.618Z,21.49
2018-05-02T17:55:08.295Z,21.26
2018-05-02T17:57:36.738Z,21.20
2018-05-02T18:00:05.203Z,21.24
2018-05-02T18:02:33.971Z,20.99
2018-05-02T18:05:02.402Z,20.88
2018-05-02T18:07:30.827Z,20.84
2018-05-02T18:09:59.294Z,20.86
2018-05-02T18:12:27.700Z,20.82
2018-05-02T18:14:56.148Z,20.74
2018-05-02T18:17:24.575Z,20.65
2018-05-02T18:19:52.975Z,20.51
2018-05-02T18:22:21.430Z,20.55
2018-05-02T18:24:50.048Z,20.59
2018-05-02T18:27:18.452Z,20.42
2018-05-02T18:29:46.913Z,20.29
2018-05-02T18:32:15.396Z,20.45
2018-05-02T18:34:43.789Z,20.41
2018-05-02T18:37:12.248Z,20.33
2018-05-02T18:39:40.651Z,20.29
2018-05-02T18:42:09.083Z,20.26
2018-05-02T18:44:37.565Z,20.16
2018-05-02T18:47:06.001Z,20.10
2018-05-02T18:49:34.429Z,20.04
2018-05-02T18:52:02.884Z,20.03
2018-05-02T18:54:31.311Z,19.98
2018-05-02T18:56:59.695Z,19.92
2018-05-02T18:59:28.203Z,19.79
2018-05-02T19:01:56.632Z,19.84
2018-05-02T19:04:25.082Z,19.94
2018-05-02T19:06:53.537Z,19.96
2018-05-02T19:09:21.934Z,19.90
2018-05-02T19:11:50.372Z,19.83
2018-05-02T19:14:18.866Z,19.57
2018-05-02T19:16:47.336Z,19.63
2018-05-02T19:19:21.489Z,19.55
2018-05-02T19:21:50.014Z,19.68
2018-05-02T19:24:18.444Z,19.36
2018-05-02T19:26:46.869Z,19.67
2018-05-02T19:29:15.316Z,19.42
2018-05-02T19:31:49.343Z,19.40
2018-05-02T19:34:17.899Z,19.40
2018-05-02T19:36:46.359Z,19.31
2018-05-02T19:39:14.799Z,19.04
2018-05-02T19:41:48.863Z,19.20
2018-05-02T19:44:17.379Z,18.99
2018-05-02T19:46:45.760Z,19.18
2018-05-02T19:49:14.191Z,18.95
2018-05-02T19:51:48.125Z,19.11
2018-05-02T19:54:16.589Z,19.12
2018-05-02T19:56:44.999Z,19.18
2018-05-02T19:59:13.798Z,19.26
2018-05-02T20:01:47.786Z,19.24
2018-05-02T20:04:16.255Z,19.26
2018-05-02T20:06:44.662Z,19.24
2018-05-02T20:09:19.200Z,19.18
2018-05-02T20:11:53.302Z,19.15
2018-05-02T20:14:21.761Z,19.13
2018-05-02T20:16:50.157Z,19.22
2018-05-02T20:19:18.619Z,19.25
2018-05-02T20:21:47.560Z,19.18
2018-05-02T20:24:15.952Z,19.19
2018-05-02T20:26:44.393Z,19.21
2018-05-02T20:29:13.104Z,19.31
2018-05-02T20:31:41.518Z,19.20
2018-05-02T20:34:09.962Z,19.04
2018-05-02T20:36:38.806Z,19.07
2018-05-02T20:39:07.187Z,19.18
2018-05-02T20:41:35.606Z,19.18
2018-05-02T20:44:04.412Z,19.18
2018-05-02T20:46:32.909Z,19.12
2018-05-02T20:49:01.273Z,19.12
2018-05-02T20:51:29.734Z,19.09
2018-05-02T20:53:58.201Z,19.14
2018-05-02T20:56:26.591Z,19.00
2018-05-02T20:58:54.999Z,18.91
2018-05-02T21:01:23.417Z,18.87
2018-05-02T21:03:51.802Z,18.91
2018-05-02T21:06:20.209Z,18.83
2018-05-02T21:08:48.614Z,18.78
2018-05-02T21:11:17.052Z,18.70
2018-05-02T21:13:45.452Z,18.62
2018-05-02T21:16:13.840Z,18.61
2018-05-02T21:18:42.263Z,18.55
2018-05-02T21:21:10.900Z,18.53
2018-05-02T21:23:39.346Z,18.54
2018-05-02T21:26:07.782Z,18.58
2018-05-02T21:28:36.199Z,18.41
2018-05-02T21:31:04.676Z,18.41
2018-05-02T21:33:33.011Z,18.35
2018-05-02T21:36:01.496Z,18.38
2018-05-02T21:38:29.904Z,18.06
2018-05-02T21:40:58.288Z,17.87
2018-05-02T21:43:26.722Z,17.72
2018-05-02T21:45:55.101Z,17.70
2018-05-02T21:48:23.539Z,17.65
2018-05-02T21:50:51.969Z,17.67
2018-05-02T21:53:20.410Z,17.42
2018-05-02T21:55:48.831Z,17.40
2018-05-02T21:58:17.233Z,17.42
2018-05-02T22:00:45.697Z,17.47
2018-05-02T22:03:14.097Z,17.17
2018-05-02T22:05:42.575Z,17.25
2018-05-02T22:08:10.966Z,16.59
2018-05-02T22:10:39.346Z,16.70
2018-05-02T22:13:07.793Z,16.54
2018-05-02T22:15:36.258Z,16.54
2018-05-02T22:18:04.704Z,16.37
2018-05-02T22:20:33.089Z,16.28
2018-05-02T22:23:01.525Z,16.26
2018-05-02T22:25:29.939Z,16.15
2018-05-02T22:27:58.414Z,16.25
2018-05-02T22:30:26.791Z,16.15
2018-05-02T22:32:55.197Z,16.10
2018-05-02T22:35:23.661Z,16.01
2018-05-02T22:37:52.101Z,15.83
2018-05-02T22:40:20.511Z,15.67
2018-05-02T22:42:48.976Z,15.84
2018-05-02T22:45:17.384Z,15.66
2018-05-02T22:47:45.801Z,15.64
2018-05-02T22:50:14.248Z,15.54
2018-05-02T22:52:42.640Z,15.63
2018-05-02T22:55:11.034Z,15.48
2018-05-02T22:57:39.480Z,15.40
2018-05-02T23:00:07.905Z,15.35
2018-05-02T23:02:36.128Z,15.28
2018-05-02T23:05:04.537Z,15.13
2018-05-02T23:07:32.977Z,15.07
2018-05-02T23:10:01.391Z,14.76
2018-05-02T23:12:29.872Z,14.87
2018-05-02T23:14:58.256Z,14.79
2018-05-02T23:17:26.696Z,14.48
2018-05-02T23:19:55.096Z,14.73
2018-05-02T23:22:24.377Z,14.47
2018-05-02T23:24:52.790Z,14.48
2018-05-02T23:27:21.217Z,14.47
2018-05-02T23:29:49.639Z,14.35
2018-05-02T23:32:18.066Z,14.31
2018-05-02T23:34:46.500Z,14.32
2018-05-02T23:37:14.944Z,13.92
2018-05-02T23:39:43.336Z,13.87
2018-05-02T23:42:11.793Z,13.77
2018-05-02T23:44:40.178Z,13.89
2018-05-02T23:47:08.626Z,13.92
2018-05-02T23:49:37.047Z,14.00
2018-05-02T23:52:05.503Z,13.72
2018-05-02T23:54:33.903Z,14.00
2018-05-02T23:57:02.307Z,13.81
2018-05-02T23:59:30.759Z,13.87
